Kezdőlap
METAR-TAF:

METAR-TAF

Repülőterek :

Magyarhradis, Csehország

földrajzi szélesség: 49-01-46N, földrajzi hosszúság: 017-26-23E, magasság: 177 m

Jelenlegi meteorológiai megfigyelések

A jelentés 4 órával és 36 perccel ezelõtt készült, 15:00 UTC
Nyugat-délnyugati szél 9 kt, délnyugati és nyugat-északnyugati között változik
Hőmérséklet 7°C
Páratartalom 70%
Légköri nyomás 1016 hPa
Látótávolság 10 km, vagy több
Kevés felhő 2700 lábon
Szórványos felhőzet 3500 lábon
Szakadozott felhőzet 4300 lábon
enyhe esõ

METAR: LKKU 191500Z 25009KT 230V290 9999 -RA FEW027 SCT035 BKN043 07/02 Q1016

Idő: 20:36 (19:36 UTC)


TAF: hiányzik

Meteorológiai megfigyelések és előrejelzések több, mint 4000 repülőtéren (METAR és TAF jelentéseket).

A térképen piros és sárga pontok jelzik az elérhető meteorológiai állomásokat.

Mozgassa az egeret a pont fölött, hogy megjelenjen az állomás neve.

Azután kattintson az időjárási megfigyelések és előrejelzések megtekintéséhez.

A térkép megváltoztatása: kattintson a fekete keresztel jelölt zöld gombra ráközelítéshez, a vonallal jelölt zöld gombra távolításhoz, vagy a zöld nyilakra a szomszédos térképek eléréséhez.


METAR-TAF: